sensor_id;sensor_type;location;lat;lon;timestamp;pressure;altitude;pressure_sealevel;temperature;humidity
54918;BME280;40818;50.562;7.454;2023-02-15T00:07:22;99005.56;;;-1.60;100.00
54918;BME280;40818;50.562;7.454;2023-02-15T00:17:29;99003.88;;;-1.58;100.00
54918;BME280;40818;50.562;7.454;2023-02-15T00:27:33;98996.19;;;-1.72;100.00
54918;BME280;40818;50.562;7.454;2023-02-15T00:37:39;98980.78;;;-2.01;100.00
54918;BME280;40818;50.562;7.454;2023-02-15T00:47:43;98977.41;;;-1.94;100.00
54918;BME280;40818;50.562;7.454;2023-02-15T00:57:49;98974.03;;;-1.90;100.00
54918;BME280;40818;50.562;7.454;2023-02-15T01:07:52;98974.88;;;-1.91;100.00
54918;BME280;40818;50.562;7.454;2023-02-15T01:17:58;98959.66;;;-1.85;100.00
54918;BME280;40818;50.562;7.454;2023-02-15T01:28:02;98961.31;;;-1.90;100.00
54918;BME280;40818;50.562;7.454;2023-02-15T01:38:09;98959.59;;;-1.94;100.00
54918;BME280;40818;50.562;7.454;2023-02-15T01:48:18;98956.19;;;-1.96;100.00
54918;BME280;40818;50.562;7.454;2023-02-15T01:58:27;98943.44;;;-2.04;100.00
54918;BME280;40818;50.562;7.454;2023-02-15T02:08:32;98929.00;;;-2.05;100.00
54918;BME280;40818;50.562;7.454;2023-02-15T02:18:47;98918.00;;;-2.04;100.00
54918;BME280;40818;50.562;7.454;2023-02-15T02:29:20;98910.31;;;-2.15;100.00
54918;BME280;40818;50.562;7.454;2023-02-15T02:39:39;98907.81;;;-2.09;100.00
54918;BME280;40818;50.562;7.454;2023-02-15T02:49:45;98900.19;;;-2.02;100.00
54918;BME280;40818;50.562;7.454;2023-02-15T02:59:52;98892.50;;;-2.10;100.00
54918;BME280;40818;50.562;7.454;2023-02-15T03:10:00;98888.25;;;-2.16;100.00
54918;BME280;40818;50.562;7.454;2023-02-15T03:20:09;98872.97;;;-2.22;100.00
54918;BME280;40818;50.562;7.454;2023-02-15T03:30:15;98862.78;;;-2.25;100.00
54918;BME280;40818;50.562;7.454;2023-02-15T03:40:27;98873.78;;;-2.32;100.00
54918;BME280;40818;50.562;7.454;2023-02-15T03:50:44;98853.38;;;-2.34;100.00
54918;BME280;40818;50.562;7.454;2023-02-15T04:01:09;98846.59;;;-2.41;100.00
54918;BME280;40818;50.562;7.454;2023-02-15T04:11:26;98843.19;;;-2.45;100.00
54918;BME280;40818;50.562;7.454;2023-02-15T04:21:32;98834.69;;;-2.50;100.00
54918;BME280;40818;50.562;7.454;2023-02-15T04:31:48;98849.09;;;-2.52;100.00
54918;BME280;40818;50.562;7.454;2023-02-15T04:41:55;98856.69;;;-2.55;100.00
54918;BME280;40818;50.562;7.454;2023-02-15T04:51:58;98851.56;;;-2.63;100.00
54918;BME280;40818;50.562;7.454;2023-02-15T05:02:04;98837.97;;;-2.71;100.00
54918;BME280;40818;50.562;7.454;2023-02-15T05:12:07;98849.81;;;-2.73;100.00
54918;BME280;40818;50.562;7.454;2023-02-15T05:22:13;98840.50;;;-2.72;100.00
54918;BME280;40818;50.562;7.454;2023-02-15T05:32:17;98844.78;;;-2.61;100.00
54918;BME280;40818;50.562;7.454;2023-02-15T05:42:23;98830.34;;;-2.74;100.00
54918;BME280;40818;50.562;7.454;2023-02-15T05:52:26;98836.19;;;-2.81;100.00
54918;BME280;40818;50.562;7.454;2023-02-15T06:02:33;98837.00;;;-2.90;100.00
54918;BME280;40818;50.562;7.454;2023-02-15T06:12:36;98838.69;;;-2.92;100.00
54918;BME280;40818;50.562;7.454;2023-02-15T06:22:42;98847.16;;;-2.93;100.00
54918;BME280;40818;50.562;7.454;2023-02-15T06:32:46;98837.00;;;-2.90;100.00
54918;BME280;40818;50.562;7.454;2023-02-15T06:42:52;98848.03;;;-2.88;100.00
54918;BME280;40818;50.562;7.454;2023-02-15T06:52:56;98852.31;;;-2.78;100.00
54918;BME280;40818;50.562;7.454;2023-02-15T07:03:02;98856.56;;;-2.80;100.00
54918;BME280;40818;50.562;7.454;2023-02-15T07:13:05;98850.63;;;-2.76;100.00
54918;BME280;40818;50.562;7.454;2023-02-15T07:23:11;98846.41;;;-2.73;100.00
54918;BME280;40818;50.562;7.454;2023-02-15T07:33:15;98857.47;;;-2.67;100.00
54918;BME280;40818;50.562;7.454;2023-02-15T07:43:32;98843.13;;;-2.59;100.00
54918;BME280;40818;50.562;7.454;2023-02-15T07:53:37;98826.19;;;-2.53;100.00
54918;BME280;40818;50.562;7.454;2023-02-15T08:03:43;98814.31;;;-2.56;100.00
54918;BME280;40818;50.562;7.454;2023-02-15T08:13:48;98815.22;;;-2.40;100.00
54918;BME280;40818;50.562;7.454;2023-02-15T08:24:03;98807.69;;;-2.15;100.00
54918;BME280;40818;50.562;7.454;2023-02-15T08:34:08;98795.00;;;-2.01;100.00
54918;BME280;40818;50.562;7.454;2023-02-15T08:44:19;98796.75;;;-1.73;100.00
54918;BME280;40818;50.562;7.454;2023-02-15T08:54:23;98780.59;;;-1.30;100.00
54918;BME280;40818;50.562;7.454;2023-02-15T09:04:29;98786.38;;;-0.44;100.00
54918;BME280;40818;50.562;7.454;2023-02-15T09:14:32;98780.19;;;-0.03;100.00
54918;BME280;40818;50.562;7.454;2023-02-15T09:24:39;98769.03;;;0.12;100.00
54918;BME280;40818;50.562;7.454;2023-02-15T09:34:43;98773.94;;;0.41;100.00
54918;BME280;40818;50.562;7.454;2023-02-15T09:45:06;98784.56;;;0.93;100.00
54918;BME280;40818;50.562;7.454;2023-02-15T09:55:32;98784.81;;;1.49;100.00
54918;BME280;40818;50.562;7.454;2023-02-15T10:05:49;98798.91;;;1.84;100.00
54918;BME280;40818;50.562;7.454;2023-02-15T10:16:08;98795.41;;;2.49;100.00
54918;BME280;40818;50.562;7.454;2023-02-15T10:26:21;98805.16;;;2.81;100.00
54918;BME280;40818;50.562;7.454;2023-02-15T10:36:35;98784.63;;;3.28;100.00
54918;BME280;40818;50.562;7.454;2023-02-15T10:46:55;98776.00;;;3.76;100.00
54918;BME280;40818;50.562;7.454;2023-02-15T10:57:13;98783.59;;;4.20;100.00
54918;BME280;40818;50.562;7.454;2023-02-15T11:07:24;98775.13;;;4.52;100.00
54918;BME280;40818;50.562;7.454;2023-02-15T11:17:35;98771.75;;;5.19;100.00
54918;BME280;40818;50.562;7.454;2023-02-15T11:27:43;98752.00;;;5.50;100.00
54918;BME280;40818;50.562;7.454;2023-02-15T11:37:51;98748.06;;;5.97;97.71
54918;BME280;40818;50.562;7.454;2023-02-15T11:48:00;98732.41;;;6.04;91.36
54918;BME280;40818;50.562;7.454;2023-02-15T11:58:09;98731.41;;;5.79;89.31
54918;BME280;40818;50.562;7.454;2023-02-15T12:08:20;98717.59;;;6.37;93.54
54918;BME280;40818;50.562;7.454;2023-02-15T12:18:34;98714.31;;;6.59;87.92
54918;BME280;40818;50.562;7.454;2023-02-15T12:28:42;98690.41;;;6.79;85.88
54918;BME280;40818;50.562;7.454;2023-02-15T12:39:04;98674.34;;;6.96;87.81
54918;BME280;40818;50.562;7.454;2023-02-15T12:49:16;98664.06;;;7.18;81.50
54918;BME280;40818;50.562;7.454;2023-02-15T12:59:20;98649.81;;;7.08;87.75
54918;BME280;40818;50.562;7.454;2023-02-15T13:09:38;98641.84;;;7.38;86.14
54918;BME280;40818;50.562;7.454;2023-02-15T13:19:45;98620.66;;;7.28;87.02
54918;BME280;40818;50.562;7.454;2023-02-15T13:29:54;98617.81;;;7.58;85.56
54918;BME280;40818;50.562;7.454;2023-02-15T13:40:02;98600.63;;;7.11;90.54
54918;BME280;40818;50.562;7.454;2023-02-15T13:50:20;98595.09;;;6.98;91.03
54918;BME280;40818;50.562;7.454;2023-02-15T14:00:38;98588.34;;;6.94;92.57
54918;BME280;40818;50.562;7.454;2023-02-15T14:10:55;98577.66;;;6.81;90.38
54918;BME280;40818;50.562;7.454;2023-02-15T14:21:07;98573.69;;;6.72;91.08
54918;BME280;40818;50.562;7.454;2023-02-15T14:31:18;98577.66;;;6.81;89.03
54918;BME280;40818;50.562;7.454;2023-02-15T14:41:31;98575.91;;;6.81;92.39
54918;BME280;40818;50.562;7.454;2023-02-15T14:51:58;98574.19;;;6.57;93.95
54918;BME280;40818;50.562;7.454;2023-02-15T15:02:10;98584.19;;;6.66;93.23
54918;BME280;40818;50.562;7.454;2023-02-15T15:12:41;98578.28;;;6.64;92.19
54918;BME280;40818;50.562;7.454;2023-02-15T15:22:44;98569.34;;;6.49;91.81
54918;BME280;40818;50.562;7.454;2023-02-15T15:32:58;98580.25;;;6.32;95.49
54918;BME280;40818;50.562;7.454;2023-02-15T15:43:29;98565.66;;;6.31;95.05
54918;BME280;40818;50.562;7.454;2023-02-15T15:53:42;98548.66;;;6.25;93.69
54918;BME280;40818;50.562;7.454;2023-02-15T16:03:50;98552.66;;;6.09;95.65
54918;BME280;40818;50.562;7.454;2023-02-15T16:13:56;98556.00;;;6.12;94.83
54918;BME280;40818;50.562;7.454;2023-02-15T16:24:12;98560.81;;;5.95;96.69
54918;BME280;40818;50.562;7.454;2023-02-15T16:34:21;98575.38;;;5.69;99.15
54918;BME280;40818;50.562;7.454;2023-02-15T16:44:28;98581.59;;;5.63;100.00
54918;BME280;40818;50.562;7.454;2023-02-15T16:54:36;98582.00;;;5.50;100.00
54918;BME280;40818;50.562;7.454;2023-02-15T17:04:40;98591.72;;;5.41;100.00
54918;BME280;40818;50.562;7.454;2023-02-15T17:14:46;98584.03;;;5.11;100.00
54918;BME280;40818;50.562;7.454;2023-02-15T17:24:59;98585.03;;;4.77;100.00
54918;BME280;40818;50.562;7.454;2023-02-15T17:35:16;98583.81;;;4.59;100.00
54918;BME280;40818;50.562;7.454;2023-02-15T17:45:26;98580.22;;;4.65;100.00
54918;BME280;40818;50.562;7.454;2023-02-15T17:55:35;98586.38;;;4.59;100.00
54918;BME280;40818;50.562;7.454;2023-02-15T18:05:42;98583.72;;;4.30;100.00
54918;BME280;40818;50.562;7.454;2023-02-15T18:16:00;98596.63;;;4.28;100.00
54918;BME280;40818;50.562;7.454;2023-02-15T18:26:05;98587.53;;;4.15;100.00
54918;BME280;40818;50.562;7.454;2023-02-15T18:36:14;98593.81;;;4.04;100.00
54918;BME280;40818;50.562;7.454;2023-02-15T18:46:19;98605.13;;;3.97;100.00
54918;BME280;40818;50.562;7.454;2023-02-15T18:56:26;98613.44;;;3.71;100.00
54918;BME280;40818;50.562;7.454;2023-02-15T19:06:29;98608.69;;;3.55;100.00
54918;BME280;40818;50.562;7.454;2023-02-15T19:16:36;98612.94;;;3.56;100.00
54918;BME280;40818;50.562;7.454;2023-02-15T19:26:41;98622.34;;;3.56;100.00
54918;BME280;40818;50.562;7.454;2023-02-15T19:36:49;98617.28;;;3.53;100.00
54918;BME280;40818;50.562;7.454;2023-02-15T19:46:53;98625.84;;;3.52;100.00
54918;BME280;40818;50.562;7.454;2023-02-15T19:56:59;98632.88;;;3.44;100.00
54918;BME280;40818;50.562;7.454;2023-02-15T20:07:06;98631.94;;;3.48;100.00
54918;BME280;40818;50.562;7.454;2023-02-15T20:17:17;98636.81;;;3.21;100.00
54918;BME280;40818;50.562;7.454;2023-02-15T20:27:22;98655.63;;;3.20;100.00
54918;BME280;40818;50.562;7.454;2023-02-15T20:37:29;98656.47;;;3.22;100.00
54918;BME280;40818;50.562;7.454;2023-02-15T20:47:32;98647.31;;;3.08;100.00
54918;BME280;40818;50.562;7.454;2023-02-15T20:57:38;98639.16;;;2.88;100.00
54918;BME280;40818;50.562;7.454;2023-02-15T21:07:42;98634.31;;;2.76;100.00
54918;BME280;40818;50.562;7.454;2023-02-15T21:17:48;98631.28;;;2.55;100.00
54918;BME280;40818;50.562;7.454;2023-02-15T21:27:51;98630.03;;;2.28;100.00
54918;BME280;40818;50.562;7.454;2023-02-15T21:37:57;98631.94;;;2.16;100.00
54918;BME280;40818;50.562;7.454;2023-02-15T21:48:01;98626.47;;;1.85;100.00
54918;BME280;40818;50.562;7.454;2023-02-15T21:58:15;98629.97;;;1.79;100.00
54918;BME280;40818;50.562;7.454;2023-02-15T22:08:20;98625.56;;;1.87;100.00
54918;BME280;40818;50.562;7.454;2023-02-15T22:18:28;98626.56;;;1.79;100.00
54918;BME280;40818;50.562;7.454;2023-02-15T22:28:33;98624.97;;;1.72;100.00
54918;BME280;40818;50.562;7.454;2023-02-15T22:38:39;98613.16;;;1.63;100.00
54918;BME280;40818;50.562;7.454;2023-02-15T22:48:44;98614.00;;;1.63;100.00
54918;BME280;40818;50.562;7.454;2023-02-15T22:58:50;98610.47;;;1.70;100.00
54918;BME280;40818;50.562;7.454;2023-02-15T23:08:53;98617.31;;;1.72;100.00
54918;BME280;40818;50.562;7.454;2023-02-15T23:18:59;98611.50;;;1.59;100.00
54918;BME280;40818;50.562;7.454;2023-02-15T23:29:07;98611.44;;;1.63;100.00
54918;BME280;40818;50.562;7.454;2023-02-15T23:39:19;98601.13;;;1.68;100.00
54918;BME280;40818;50.562;7.454;2023-02-15T23:49:35;98607.13;;;1.67;100.00
54918;BME280;40818;50.562;7.454;2023-02-15T23:59:42;98602.06;;;1.62;100.00
